Time;durP1;ratioP1;P1;durP2;ratioP2;P2;SDS_P1;SDS_P2;PMS_P1;PMS_P2;Temp;Humidity;BMP_temperature;BMP_pressure;BME280_temperature;BME280_humidity;BME280_pressure;Samples;Min_cycle;Max_cycle;Signal;HPM_P1;HPM_P2
2024/02/21 00:01:54;;;;;;;27.30;18.80;;;;;;;0.96;100.00;100012.41;107017;1267;68757;-78
2024/02/21 00:04:21;;;;;;;26.30;19.20;;;;;;;0.96;100.00;100011.52;106328;1267;71117;-79
2024/02/21 00:06:49;;;;;;;27.40;19.00;;;;;;;0.94;100.00;100007.46;106480;1268;60925;-80
2024/02/21 00:09:16;;;;;;;25.20;19.30;;;;;;;0.99;100.00;100006.81;106204;1267;60088;-79
2024/02/21 00:11:43;;;;;;;29.20;20.60;;;;;;;1.02;100.00;100015.74;105985;1267;72404;-79
2024/02/21 00:14:11;;;;;;;31.00;22.20;;;;;;;1.03;100.00;100005.52;105870;1267;69029;-79
2024/02/21 00:16:38;;;;;;;32.80;22.10;;;;;;;1.05;100.00;100009.56;105254;1267;71901;-77
2024/02/21 00:19:06;;;;;;;29.80;20.80;;;;;;;1.03;100.00;99996.81;106697;1268;59291;-78
2024/02/21 00:21:33;;;;;;;42.30;29.60;;;;;;;1.01;100.00;99994.63;104883;1267;59828;-77
2024/02/21 00:24:00;;;;;;;72.80;47.20;;;;;;;1.02;100.00;99998.73;104871;1268;72216;-76
2024/02/21 00:26:28;;;;;;;80.40;50.50;;;;;;;1.03;100.00;99995.73;104746;1270;69075;-76
2024/02/21 00:28:55;;;;;;;39.60;26.60;;;;;;;1.04;100.00;99990.77;104738;1267;71092;-77
2024/02/21 00:31:23;;;;;;;33.70;23.60;;;;;;;1.06;100.00;99989.61;104428;1267;60938;-75
2024/02/21 00:33:50;;;;;;;42.80;29.50;;;;;;;1.07;100.00;99997.72;104775;1268;59873;-76
2024/02/21 00:36:18;;;;;;;118.80;69.70;;;;;;;1.05;100.00;99990.92;104774;1273;73061;-78
2024/02/21 00:38:45;;;;;;;85.90;53.90;;;;;;;1.00;100.00;99992.80;104772;1267;70030;-77
2024/02/21 00:41:12;;;;;;;42.90;26.90;;;;;;;1.04;100.00;99987.27;104676;1273;71216;-78
2024/02/21 00:43:41;;;;;;;31.00;20.80;;;;;;;1.08;100.00;99983.39;104800;1270;59915;-79
2024/02/21 00:46:08;;;;;;;39.90;27.90;;;;;;;1.09;100.00;99979.66;105120;1272;60129;-78
2024/02/21 00:48:36;;;;;;;75.50;49.70;;;;;;;1.09;100.00;99981.71;105255;1268;71862;-77
2024/02/21 00:51:04;;;;;;;56.50;32.50;;;;;;;1.06;100.00;99971.95;105554;1267;70368;-77
2024/02/21 00:53:31;;;;;;;37.40;24.10;;;;;;;1.06;100.00;99969.38;107779;1267;71124;-78
2024/02/21 00:55:58;;;;;;;35.80;22.30;;;;;;;1.09;100.00;99969.33;107798;1267;59413;-77
2024/02/21 00:58:26;;;;;;;47.90;35.70;;;;;;;1.10;100.00;99969.29;105851;1267;59736;-78
2024/02/21 01:00:53;;;;;;;56.50;38.60;;;;;;;1.12;100.00;99964.39;105176;1268;73093;-77
2024/02/21 01:03:20;;;;;;;46.10;28.90;;;;;;;1.15;100.00;99962.68;105010;1271;69064;-78
2024/02/21 01:05:48;;;;;;;35.70;23.30;;;;;;;1.14;100.00;99961.37;104784;1267;72685;-78
2024/02/21 01:08:15;;;;;;;34.40;22.90;;;;;;;1.11;100.00;99960.28;104988;1267;60868;-78
2024/02/21 01:10:43;;;;;;;54.80;40.60;;;;;;;1.15;100.00;99957.79;105151;1267;59705;-79
2024/02/21 01:13:10;;;;;;;51.40;36.40;;;;;;;1.19;100.00;99953.52;104978;1267;70833;-78
2024/02/21 01:15:38;;;;;;;47.90;27.90;;;;;;;1.16;100.00;99951.06;104847;1275;68963;-79
2024/02/21 01:18:06;;;;;;;35.60;23.30;;;;;;;1.15;100.00;99950.64;106571;1270;71570;-79
2024/02/21 01:20:34;;;;;;;34.60;23.10;;;;;;;1.20;100.00;99944.52;105543;1270;59790;-77
2024/02/21 01:23:01;;;;;;;31.80;22.30;;;;;;;1.22;100.00;99949.80;104953;1267;59581;-79
2024/02/21 01:25:29;;;;;;;32.00;21.40;;;;;;;1.23;100.00;99946.07;104891;1267;71672;-79
2024/02/21 01:27:56;;;;;;;34.10;23.20;;;;;;;1.27;100.00;99941.61;104856;1267;70390;-78
2024/02/21 01:30:23;;;;;;;33.00;21.60;;;;;;;1.25;100.00;99942.46;104788;1270;72783;-78
2024/02/21 01:32:51;;;;;;;30.90;21.20;;;;;;;1.24;100.00;99942.72;104779;1273;60850;-79
2024/02/21 01:35:18;;;;;;;32.20;21.30;;;;;;;1.29;100.00;99942.38;104838;1272;59670;-79
2024/02/21 01:37:46;;;;;;;29.90;21.80;;;;;;;1.33;100.00;99939.48;104828;1267;71856;-77
2024/02/21 01:40:14;;;;;;;30.60;21.60;;;;;;;1.34;100.00;99940.27;104917;1267;69713;-79
2024/02/21 01:42:42;;;;;;;30.70;21.80;;;;;;;1.35;100.00;99940.20;104815;1268;72102;-80
2024/02/21 01:45:09;;;;;;;33.00;22.60;;;;;;;1.37;100.00;99937.94;105098;1267;61132;-80
2024/02/21 01:47:37;;;;;;;30.30;22.20;;;;;;;1.38;100.00;99937.88;105526;1267;59879;-80
2024/02/21 01:50:05;;;;;;;30.60;21.10;;;;;;;1.41;100.00;99934.77;107315;1267;73066;-81
2024/02/21 01:52:33;;;;;;;29.20;19.80;;;;;;;1.42;100.00;99937.13;108188;1268;69083;-80
2024/02/21 01:55:00;;;;;;;26.90;19.50;;;;;;;1.45;100.00;99933.59;106708;1267;72726;-78
2024/02/21 01:57:28;;;;;;;24.60;18.70;;;;;;;1.47;100.00;99937.29;105807;1268;59836;-80
2024/02/21 01:59:56;;;;;;;26.30;19.60;;;;;;;1.45;100.00;99931.85;105685;1267;62047;-77
2024/02/21 02:02:24;;;;;;;26.30;19.10;;;;;;;1.50;100.00;99931.87;105384;1268;71795;-79
2024/02/21 02:04:52;;;;;;;26.30;19.70;;;;;;;1.55;100.00;99932.75;104975;1273;69241;-78
2024/02/21 02:07:19;;;;;;;28.50;20.80;;;;;;;1.56;100.00;99937.89;105305;1267;71312;-78
2024/02/21 02:09:47;;;;;;;28.70;19.10;;;;;;;1.53;100.00;99938.78;104893;1272;59833;-75
2024/02/21 02:12:15;;;;;;;31.00;19.20;;;;;;;1.56;100.00;99940.16;105002;1268;60063;-78
2024/02/21 02:14:42;;;;;;;27.20;19.80;;;;;;;1.60;100.00;99935.17;104977;1268;73073;-77
2024/02/21 02:17:09;;;;;;;26.20;19.30;;;;;;;1.60;100.00;99931.34;105729;1267;70474;-81
2024/02/21 02:19:37;;;;;;;25.10;17.50;;;;;;;1.62;100.00;99932.10;105150;1267;71478;-79
2024/02/21 02:22:09;;;;;;;28.60;20.40;;;;;;;1.64;100.00;99932.30;104936;1268;59761;-79
2024/02/21 02:24:37;;;;;;;27.90;19.70;;;;;;;1.61;100.00;99935.98;105048;1272;59669;-79
2024/02/21 02:27:04;;;;;;;26.10;19.70;;;;;;;1.62;100.00;99935.08;104640;1267;73569;-79
2024/02/21 02:29:32;;;;;;;29.30;20.00;;;;;;;1.66;100.00;99942.48;104953;1273;72095;-78
2024/02/21 02:32:00;;;;;;;27.10;19.20;;;;;;;1.68;100.00;99943.73;104992;1272;72630;-78
2024/02/21 02:34:27;;;;;;;28.70;18.90;;;;;;;1.70;100.00;99944.08;105308;1267;59780;-79
2024/02/21 02:36:55;;;;;;;27.30;20.00;;;;;;;1.72;100.00;99946.59;105127;1271;59670;-79
2024/02/21 02:39:22;;;;;;;27.80;19.10;;;;;;;1.70;100.00;99953.51;104888;1268;72846;-79
2024/02/21 02:41:50;;;;;;;26.10;18.00;;;;;;;1.67;100.00;99951.09;105010;1273;69290;-79
2024/02/21 02:44:17;;;;;;;25.20;17.90;;;;;;;1.71;100.00;99947.70;105012;1267;72724;-78
2024/02/21 02:46:44;;;;;;;29.30;19.90;;;;;;;1.75;100.00;99949.48;106668;1267;61102;-79
2024/02/21 02:49:12;;;;;;;27.50;17.70;;;;;;;1.75;100.00;99953.16;108016;1267;58795;-79
2024/02/21 02:51:46;;;;;;;28.00;20.10;;;;;;;1.73;100.00;99955.05;106776;1267;71694;-78
2024/02/21 02:54:13;;;;;;;28.30;20.00;;;;;;;1.80;100.00;99958.60;105871;1267;69506;-78
2024/02/21 02:56:40;;;;;;;31.50;22.30;;;;;;;1.86;100.00;99962.38;105892;1268;72728;-80
2024/02/21 02:59:08;;;;;;;27.20;20.20;;;;;;;1.85;100.00;99959.50;105049;1268;60103;-81
2024/02/21 03:01:35;;;;;;;27.40;18.70;;;;;;;1.85;100.00;99960.52;105002;1268;60100;-79
2024/02/21 03:04:03;;;;;;;27.80;20.10;;;;;;;1.88;100.00;99964.51;104773;1273;73307;-78
2024/02/21 03:06:31;;;;;;;27.40;19.60;;;;;;;1.86;100.00;99960.31;106375;1267;69230;-79
2024/02/21 03:08:59;;;;;;;24.70;18.20;;;;;;;1.86;100.00;99960.44;107352;1267;71650;-81
2024/02/21 03:11:28;;;;;;;23.80;18.60;;;;;;;1.91;100.00;99960.25;107512;1270;60412;-80
2024/02/21 03:13:57;;;;;;;29.00;19.90;;;;;;;1.94;100.00;99967.05;106606;1267;60327;-80
2024/02/21 03:16:25;;;;;;;26.40;17.80;;;;;;;1.92;100.00;99970.54;105412;1267;72717;-80
2024/02/21 03:18:53;;;;;;;29.80;19.00;;;;;;;1.96;100.00;99969.05;104936;1275;68187;-78
2024/02/21 03:21:20;;;;;;;27.20;19.50;;;;;;;1.99;100.00;99973.52;104941;1273;72672;-79
2024/02/21 03:23:47;;;;;;;27.80;18.20;;;;;;;2.00;100.00;99970.86;104968;1267;60879;-81
2024/02/21 03:26:17;;;;;;;23.90;18.70;;;;;;;2.06;100.00;99971.66;105234;1273;60462;-79
2024/02/21 03:28:46;;;;;;;27.40;19.60;;;;;;;2.08;100.00;99973.92;107536;1267;73951;-79
2024/02/21 03:31:14;;;;;;;26.80;20.90;;;;;;;2.06;100.00;99975.86;107072;1267;69933;-78
2024/02/21 03:33:43;;;;;;;25.80;19.90;;;;;;;2.06;100.00;99975.63;105190;1271;71468;-79
2024/02/21 03:36:15;;;;;;;26.20;19.20;;;;;;;2.13;100.00;99974.11;105019;1270;60475;-81
2024/02/21 03:38:42;;;;;;;26.30;19.40;;;;;;;2.16;100.00;99977.73;104926;1270;60374;-80
2024/02/21 03:41:10;;;;;;;26.80;19.00;;;;;;;2.17;100.00;99978.73;105161;1268;74004;-81
2024/02/21 03:43:38;;;;;;;27.70;20.10;;;;;;;2.13;100.00;99979.68;106821;1267;69026;-80
2024/02/21 03:46:06;;;;;;;29.50;19.80;;;;;;;2.07;100.00;99979.60;108275;1268;71130;-80
2024/02/21 03:48:33;;;;;;;24.50;17.80;;;;;;;2.08;100.00;99984.98;107167;1271;61785;-79
2024/02/21 03:51:00;;;;;;;26.60;19.30;;;;;;;2.08;100.00;99984.45;105706;1267;59386;-80
2024/02/21 03:53:28;;;;;;;28.20;19.60;;;;;;;2.08;100.00;99981.28;105507;1268;72821;-80
2024/02/21 03:55:56;;;;;;;26.20;19.20;;;;;;;2.08;100.00;99986.03;105049;1267;70105;-79
2024/02/21 03:58:23;;;;;;;26.20;19.30;;;;;;;2.08;100.00;99985.31;104848;1267;71449;-78
2024/02/21 04:00:51;;;;;;;27.90;19.90;;;;;;;2.04;100.00;99984.89;104697;1269;60574;-79
2024/02/21 04:03:19;;;;;;;27.40;19.80;;;;;;;1.99;100.00;99984.88;104705;1267;60497;-80
2024/02/21 04:05:47;;;;;;;26.10;19.60;;;;;;;2.02;100.00;99978.40;105139;1273;72615;-78
2024/02/21 04:08:14;;;;;;;26.80;19.00;;;;;;;2.05;100.00;99978.52;105291;1276;68747;-79
2024/02/21 04:10:42;;;;;;;29.90;20.80;;;;;;;2.05;100.00;99986.44;105953;1270;72490;-81
2024/02/21 04:13:09;;;;;;;28.60;20.40;;;;;;;2.02;100.00;99987.52;105348;1268;60923;-80
2024/02/21 04:15:37;;;;;;;32.90;21.40;;;;;;;2.05;100.00;99988.14;105194;1268;60485;-81
2024/02/21 04:18:04;;;;;;;27.80;19.60;;;;;;;2.07;100.00;99984.33;105573;1272;72498;-78
2024/02/21 04:20:32;;;;;;;27.70;19.20;;;;;;;2.08;100.00;99985.44;105334;1270;69636;-79
2024/02/21 04:23:00;;;;;;;27.50;19.90;;;;;;;2.09;100.00;99987.80;105184;1271;70339;-78
2024/02/21 04:25:27;;;;;;;24.50;17.50;;;;;;;2.07;100.00;99991.12;104967;1268;61823;-78
2024/02/21 04:27:54;;;;;;;27.10;18.60;;;;;;;2.10;100.00;99989.69;105049;1268;60654;-78
2024/02/21 04:30:22;;;;;;;26.60;19.20;;;;;;;2.16;100.00;99984.24;104748;1273;73886;-75
2024/02/21 04:32:49;;;;;;;28.60;21.00;;;;;;;2.18;100.00;99988.84;104777;1267;70336;-76
2024/02/21 04:35:17;;;;;;;34.50;22.30;;;;;;;2.15;100.00;99988.15;104830;1273;72470;-80
2024/02/21 04:37:44;;;;;;;28.00;22.10;;;;;;;2.12;100.00;99993.01;106006;1267;60475;-80
2024/02/21 04:40:13;;;;;;;31.70;22.80;;;;;;;2.18;100.00;99992.13;107611;1267;60685;-79
2024/02/21 04:42:41;;;;;;;43.20;29.20;;;;;;;2.24;100.00;99996.73;108048;1267;72756;-80
2024/02/21 04:45:09;;;;;;;31.30;23.00;;;;;;;2.28;100.00;99999.61;107823;1267;68766;-78
2024/02/21 04:47:36;;;;;;;28.40;22.10;;;;;;;2.28;100.00;100000.70;105367;1267;71142;-79
2024/02/21 04:50:04;;;;;;;25.80;19.70;;;;;;;2.31;100.00;100004.85;105584;1271;63115;-77
2024/02/21 04:52:32;;;;;;;26.40;19.30;;;;;;;2.34;100.00;100010.39;105174;1267;60370;-76
2024/02/21 04:54:59;;;;;;;27.10;20.10;;;;;;;2.37;100.00;100007.55;105004;1267;72051;-80
2024/02/21 04:57:26;;;;;;;26.60;19.10;;;;;;;2.35;100.00;100008.69;104810;1267;69210;-81
2024/02/21 04:59:54;;;;;;;26.00;18.80;;;;;;;2.31;100.00;100010.58;104744;1275;71405;-78
2024/02/21 05:02:24;;;;;;;22.10;18.30;;;;;;;2.35;100.00;100013.42;104855;1267;60404;-79
2024/02/21 05:04:52;;;;;;;25.60;18.50;;;;;;;2.38;100.00;100011.69;104972;1268;60378;-79
2024/02/21 05:07:20;;;;;;;29.20;20.30;;;;;;;2.39;100.00;100015.98;105713;1267;72680;-79
2024/02/21 05:09:47;;;;;;;26.10;19.90;;;;;;;2.35;100.00;100015.91;105229;1268;69999;-78
2024/02/21 05:12:15;;;;;;;23.10;17.80;;;;;;;2.38;100.00;100015.14;104900;1268;72697;-78
2024/02/21 05:14:42;;;;;;;25.30;18.40;;;;;;;2.43;100.00;100017.61;104764;1273;60696;-80
2024/02/21 05:17:10;;;;;;;28.60;20.00;;;;;;;2.42;100.00;100019.27;105197;1273;60392;-80
2024/02/21 05:19:37;;;;;;;24.60;18.60;;;;;;;2.39;100.00;100017.74;105868;1267;72945;-78
2024/02/21 05:22:05;;;;;;;22.40;17.40;;;;;;;2.45;100.00;100020.83;107085;1272;71105;-79
2024/02/21 05:24:32;;;;;;;23.00;17.10;;;;;;;2.50;100.00;100026.23;108046;1271;70972;-78
2024/02/21 05:27:00;;;;;;;24.70;17.70;;;;;;;2.50;100.00;100024.77;107250;1268;61240;-78
2024/02/21 05:29:27;;;;;;;24.60;19.20;;;;;;;2.52;100.00;100027.23;105024;1268;60531;-79
2024/02/21 05:31:57;;;;;;;25.60;17.00;;;;;;;2.59;100.00;100025.39;105456;1268;72588;-81
2024/02/21 05:34:25;;;;;;;24.80;18.60;;;;;;;2.64;100.00;100024.89;105326;1273;69299;-80
2024/02/21 05:36:53;;;;;;;24.90;17.90;;;;;;;2.62;100.00;100026.09;106179;1269;71510;-79
2024/02/21 05:39:22;;;;;;;25.40;18.20;;;;;;;2.58;100.00;100028.65;107583;1268;61862;-79
2024/02/21 05:41:52;;;;;;;26.60;17.90;;;;;;;2.61;100.00;100026.85;107997;1267;59283;-80
2024/02/21 05:44:19;;;;;;;23.30;16.60;;;;;;;2.67;100.00;100030.92;106012;1268;72604;-79
2024/02/21 05:46:47;;;;;;;25.60;18.10;;;;;;;2.69;100.00;100032.20;105516;1267;67869;-79
2024/02/21 05:49:14;;;;;;;27.10;18.20;;;;;;;2.65;100.00;100033.55;105804;1272;72701;-81
2024/02/21 05:51:42;;;;;;;27.20;19.20;;;;;;;2.67;100.00;100034.45;105350;1268;60631;-81
2024/02/21 05:54:09;;;;;;;27.70;18.70;;;;;;;2.73;100.00;100033.35;105360;1273;60557;-80
2024/02/21 05:56:37;;;;;;;24.70;17.90;;;;;;;2.76;100.00;100032.23;105251;1267;72557;-80
2024/02/21 05:59:04;;;;;;;24.50;18.30;;;;;;;2.72;100.00;100032.31;105541;1273;69083;-80
2024/02/21 06:01:32;;;;;;;24.80;17.40;;;;;;;2.72;100.00;100034.42;105254;1270;73800;-75
2024/02/21 06:03:59;;;;;;;26.30;17.80;;;;;;;2.78;100.00;100038.73;105295;1269;60551;-77
2024/02/21 06:06:27;;;;;;;22.20;16.80;;;;;;;2.82;100.00;100042.45;105379;1268;60512;-77
2024/02/21 06:08:55;;;;;;;25.10;17.40;;;;;;;2.84;100.00;100041.79;105096;1268;73884;-79
2024/02/21 06:11:22;;;;;;;23.30;17.60;;;;;;;2.83;100.00;100046.05;105011;1268;69167;-78
2024/02/21 06:13:50;;;;;;;23.10;17.40;;;;;;;2.80;100.00;100045.77;105045;1270;71074;-75
2024/02/21 06:16:17;;;;;;;20.90;15.40;;;;;;;2.84;100.00;100045.16;105097;1273;61979;-82
2024/02/21 06:18:45;;;;;;;20.50;15.80;;;;;;;2.88;100.00;100041.50;105397;1270;60466;-80
2024/02/21 06:21:12;;;;;;;21.50;16.50;;;;;;;2.90;100.00;100044.00;105300;1267;74477;-83
2024/02/21 06:23:40;;;;;;;21.40;16.00;;;;;;;2.91;100.00;100042.86;105169;1268;70052;-81
2024/02/21 06:26:07;;;;;;;23.40;15.70;;;;;;;2.89;100.00;100044.40;105504;1268;72536;-78
2024/02/21 06:28:35;;;;;;;21.00;16.00;;;;;;;2.90;100.00;100045.36;105416;1272;60440;-79
2024/02/21 06:31:02;;;;;;;21.20;15.50;;;;;;;2.98;100.00;100048.85;105347;1267;60667;-80
2024/02/21 06:33:30;;;;;;;22.70;15.70;;;;;;;3.06;100.00;100050.70;106484;1267;73833;-78
2024/02/21 06:35:58;;;;;;;21.30;16.30;;;;;;;3.12;100.00;100051.34;107067;1268;68318;-79
2024/02/21 06:38:25;;;;;;;23.30;15.60;;;;;;;3.12;100.00;100051.66;108129;1267;71136;-80
2024/02/21 06:40:54;;;;;;;22.90;15.50;;;;;;;3.15;100.00;100051.09;107478;1270;60655;-80
2024/02/21 06:43:22;;;;;;;18.30;13.90;;;;;;;3.24;100.00;100052.36;106258;1272;60448;-80
2024/02/21 06:45:54;;;;;;;20.50;15.00;;;;;;;3.31;100.00;100053.92;106300;1268;71513;-82
2024/02/21 06:48:21;;;;;;;22.00;16.20;;;;;;;3.33;100.00;100051.10;105716;1268;69171;-82
2024/02/21 06:50:49;;;;;;;20.00;15.90;;;;;;;3.32;100.00;100056.09;105313;1268;72759;-82
2024/02/21 06:53:16;;;;;;;23.60;16.30;;;;;;;3.35;100.00;100059.90;105667;1272;62075;-80
2024/02/21 06:55:43;;;;;;;26.30;16.80;;;;;;;3.41;100.00;100058.27;105617;1273;60401;-81
2024/02/21 06:58:11;;;;;;;24.60;17.30;;;;;;;3.45;100.00;100058.35;107693;1267;73877;-81
2024/02/21 07:00:40;;;;;;;22.80;16.00;;;;;;;3.39;100.00;100062.42;108139;1273;69182;-81
2024/02/21 07:03:08;;;;;;;22.80;17.20;;;;;;;3.38;100.00;100066.39;108322;1267;73652;-82
2024/02/21 07:05:35;;;;;;;27.20;18.10;;;;;;;3.42;100.00;100067.83;106555;1273;60382;-80
2024/02/21 07:08:03;;;;;;;25.20;18.50;;;;;;;3.46;100.00;100071.73;105877;1273;60875;-79
2024/02/21 07:10:31;;;;;;;25.70;18.50;;;;;;;3.48;100.00;100069.16;105459;1268;74780;-79
2024/02/21 07:12:58;;;;;;;29.00;19.50;;;;;;;3.45;100.00;100070.09;105438;1269;68783;-79
2024/02/21 07:15:26;;;;;;;28.00;19.30;;;;;;;3.45;100.00;100075.17;105018;1272;71224;-80
2024/02/21 07:17:54;;;;;;;25.50;20.20;;;;;;;3.48;100.00;100073.53;105744;1272;60795;-80
2024/02/21 07:20:22;;;;;;;27.90;19.80;;;;;;;3.50;100.00;100068.61;105153;1268;60439;-81
2024/02/21 07:22:50;;;;;;;30.30;20.20;;;;;;;3.53;100.00;100073.83;105461;1276;72663;-79
2024/02/21 07:25:17;;;;;;;27.80;20.50;;;;;;;3.51;100.00;100078.19;105522;1273;69067;-80
2024/02/21 07:27:44;;;;;;;30.10;20.90;;;;;;;3.47;100.00;100079.56;105469;1270;71397;-82
2024/02/21 07:30:12;;;;;;;30.80;22.20;;;;;;;3.49;100.00;100078.47;107318;1268;60444;-80
2024/02/21 07:32:44;;;;;;;28.60;19.40;;;;;;;3.56;100.00;100079.22;108040;1270;60103;-80
2024/02/21 07:35:12;;;;;;;25.10;18.00;;;;;;;3.63;100.00;100072.57;108201;1273;75014;-82
2024/02/21 07:37:40;;;;;;;26.00;17.80;;;;;;;3.71;100.00;100075.65;107796;1276;68943;-82
2024/02/21 07:40:15;;;;;;;28.10;19.40;;;;;;;3.74;100.00;100078.34;106232;1271;73728;-80
2024/02/21 07:42:43;;;;;;;28.00;17.90;;;;;;;3.74;100.00;100080.48;105773;1269;62428;-79
2024/02/21 07:45:15;;;;;;;24.00;17.50;;;;;;;3.77;100.00;100082.70;105204;1267;60380;-79
2024/02/21 07:47:46;;;;;;;25.90;18.70;;;;;;;3.83;100.00;100082.29;106409;1275;73568;-80
2024/02/21 07:50:14;;;;;;;26.70;19.20;;;;;;;3.84;100.00;100086.02;105977;1273;68285;-79
2024/02/21 07:52:42;;;;;;;23.80;17.80;;;;;;;3.87;100.00;100091.43;105803;1273;71513;-79
2024/02/21 07:55:10;;;;;;;24.40;18.30;;;;;;;3.92;100.00;100090.70;105160;1267;60593;-80
2024/02/21 07:57:41;;;;;;;23.00;18.60;;;;;;;4.00;100.00;100091.30;106304;1269;60512;-79
2024/02/21 08:00:14;;;;;;;29.70;21.60;;;;;;;4.04;100.00;100092.38;106888;1271;72441;-80
2024/02/21 08:02:43;;;;;;;24.70;20.00;;;;;;;4.07;100.00;100090.09;105545;1273;67848;-79
2024/02/21 08:05:12;;;;;;;23.30;18.10;;;;;;;4.16;100.00;100085.56;106125;1271;72068;-80
2024/02/21 08:07:40;;;;;;;25.10;19.60;;;;;;;4.25;100.00;100088.16;105877;1271;62378;-80
2024/02/21 08:10:08;;;;;;;25.20;18.10;;;;;;;4.29;100.00;100088.75;105475;1274;60383;-81
2024/02/21 08:12:35;;;;;;;21.70;16.50;;;;;;;4.27;100.00;100086.57;105528;1276;74026;-80
2024/02/21 08:15:04;;;;;;;23.50;16.70;;;;;;;4.31;100.00;100085.90;105790;1275;69558;-78
2024/02/21 08:17:31;;;;;;;23.90;17.90;;;;;;;4.33;100.00;100086.79;105677;1276;74953;-80
2024/02/21 08:19:58;;;;;;;22.90;16.60;;;;;;;4.28;100.00;100088.41;105795;1270;62114;-82
2024/02/21 08:22:26;;;;;;;26.30;19.10;;;;;;;4.27;100.00;100090.48;105451;1269;60642;-81
2024/02/21 08:24:54;;;;;;;22.80;15.90;;;;;;;4.29;100.00;100084.50;105404;1270;72643;-80
2024/02/21 08:27:22;;;;;;;21.60;16.60;;;;;;;4.31;100.00;100083.80;106199;1273;70498;-80
2024/02/21 08:29:49;;;;;;;22.50;16.90;;;;;;;4.26;100.00;100086.66;105986;1270;70972;-84
2024/02/21 08:32:17;;;;;;;28.20;18.00;;;;;;;4.28;100.00;100087.25;107974;1270;60580;-85
2024/02/21 08:34:44;;;;;;;21.70;16.10;;;;;;;4.37;100.00;100085.67;108296;1270;61391;-83
2024/02/21 08:37:12;;;;;;;26.30;18.40;;;;;;;4.42;100.00;100084.95;106888;1269;73404;-82
2024/02/21 08:39:39;;;;;;;23.80;17.70;;;;;;;4.43;100.00;100077.46;106120;1268;71498;-76
2024/02/21 08:42:06;;;;;;;22.70;18.70;;;;;;;4.52;100.00;100082.17;105894;1273;74984;-82
2024/02/21 08:44:34;;;;;;;27.00;19.60;;;;;;;4.60;100.00;100082.78;105932;1270;60483;-79
2024/02/21 08:47:03;;;;;;;21.00;16.20;;;;;;;4.64;100.00;100079.21;106343;1270;62298;-80
2024/02/21 08:49:32;;;;;;;22.20;16.30;;;;;;;4.75;100.00;100084.63;105792;1270;74563;-79
2024/02/21 08:52:02;;;;;;;21.50;17.20;;;;;;;4.84;100.00;100084.98;106111;1273;72582;-79
2024/02/21 08:54:32;;;;;;;22.00;18.20;;;;;;;4.88;100.00;100081.98;106181;1269;71979;-80
2024/02/21 08:57:00;;;;;;;22.20;18.10;;;;;;;4.86;100.00;100082.98;106202;1272;63952;-81
2024/02/21 08:59:28;;;;;;;22.60;17.90;;;;;;;4.88;100.00;100080.77;105616;1273;60501;-83
2024/02/21 09:01:56;;;;;;;22.50;17.10;;;;;;;4.96;100.00;100083.32;106401;1270;72927;-84
2024/02/21 09:04:23;;;;;;;20.30;16.90;;;;;;;5.02;100.00;100084.88;106361;1272;71269;-79
2024/02/21 09:06:52;;;;;;;21.80;17.40;;;;;;;5.07;100.00;100085.17;105046;1273;72834;-79
2024/02/21 09:09:20;;;;;;;20.60;17.40;;;;;;;5.07;100.00;100086.59;105289;1272;61620;-79
2024/02/21 09:11:49;;;;;;;21.80;17.50;;;;;;;5.06;100.00;100084.25;105393;1275;60607;-80
2024/02/21 09:14:17;;;;;;;22.20;17.80;;;;;;;5.05;100.00;100086.20;105985;1273;73078;-84
2024/02/21 09:16:45;;;;;;;24.60;19.10;;;;;;;4.99;99.88;100092.53;106217;1273;71217;-81
2024/02/21 09:19:12;;;;;;;23.30;17.20;;;;;;;4.92;99.98;100085.73;105648;1267;74903;-79
2024/02/21 09:21:40;;;;;;;23.00;17.60;;;;;;;4.91;100.00;100091.38;105789;1274;61821;-79
2024/02/21 09:24:07;;;;;;;21.40;17.00;;;;;;;4.91;100.00;100086.31;106796;1270;58766;-79
2024/02/21 09:26:35;;;;;;;23.70;18.50;;;;;;;4.86;100.00;100092.52;107299;1268;74933;-80
2024/02/21 09:29:03;;;;;;;21.50;17.40;;;;;;;4.84;100.00;100094.59;106369;1273;72172;-80
2024/02/21 09:31:33;;;;;;;21.90;17.50;;;;;;;4.84;100.00;100091.96;108276;1269;73758;-83
2024/02/21 09:34:01;;;;;;;20.90;17.00;;;;;;;4.83;100.00;100092.02;108016;1270;62749;-83
2024/02/21 09:36:28;;;;;;;22.70;17.00;;;;;;;4.80;100.00;100088.77;106108;1270;60589;-83
2024/02/21 09:38:56;;;;;;;20.90;16.60;;;;;;;4.74;100.00;100085.71;107237;1272;76210;-84
2024/02/21 09:41:25;;;;;;;18.30;15.30;;;;;;;4.75;100.00;100083.58;106149;1272;69319;-83
2024/02/21 09:43:53;;;;;;;19.80;16.20;;;;;;;4.79;100.00;100081.17;105464;1273;71741;-83
2024/02/21 09:46:52;;;;;;;21.50;16.60;;;;;;;4.83;100.00;100088.35;105411;1283;61227;-81
2024/02/21 09:49:33;;;;;;;17.60;14.90;;;;;;;4.79;100.00;100081.63;106035;1268;61742;-85
2024/02/21 09:52:05;;;;;;;21.50;15.60;;;;;;;4.79;100.00;100080.94;107523;1268;74809;-87
2024/02/21 09:54:34;;;;;;;18.30;14.80;;;;;;;4.84;100.00;100076.89;107705;1275;71312;-87
2024/02/21 09:57:03;;;;;;;18.20;14.70;;;;;;;4.85;100.00;100076.81;106120;1271;72036;-86
2024/02/21 09:59:32;;;;;;;22.30;17.20;;;;;;;4.85;100.00;100075.38;105517;1274;62187;-84
2024/02/21 10:02:00;;;;;;;22.20;17.30;;;;;;;4.84;100.00;100074.08;106624;1269;61254;-86
2024/02/21 10:04:30;;;;;;;20.30;15.60;;;;;;;4.84;100.00;100073.39;106981;1269;76463;-82
2024/02/21 10:06:58;;;;;;;18.80;15.90;;;;;;;4.86;100.00;100073.91;106678;1275;71002;-84
2024/02/21 10:09:30;;;;;;;19.90;16.10;;;;;;;4.87;100.00;100074.86;105674;1276;72820;-82
2024/02/21 10:12:11;;;;;;;21.10;17.00;;;;;;;4.88;100.00;100071.27;105719;1270;60887;-84
2024/02/21 10:14:46;;;;;;;24.20;19.50;;;;;;;4.91;100.00;100071.77;105914;1273;61321;-83
2024/02/21 10:17:46;;;;;;;;;;;;;;;;;;;;;
2024/02/21 10:20:30;;;;;;;24.80;17.10;;;;;;;4.89;100.00;100069.46;106192;1270;72410;-82
2024/02/21 10:23:08;;;;;;;17.50;14.20;;;;;;;4.89;100.00;100066.77;107676;1275;71543;-84
2024/02/21 10:25:41;;;;;;;19.10;15.40;;;;;;;4.91;100.00;100066.45;106952;1270;62292;-85
2024/02/21 10:28:23;;;;;;;20.90;15.80;;;;;;;4.93;100.00;100063.84;107751;1270;59289;-87
2024/02/21 10:30:53;;;;;;;18.60;14.80;;;;;;;5.01;100.00;100061.77;107701;1268;72577;-86
2024/02/21 10:33:22;;;;;;;19.70;15.10;;;;;;;5.11;100.00;100061.56;107783;1268;71056;-88
2024/02/21 10:35:51;;;;;;;21.90;16.00;;;;;;;5.16;100.00;100060.80;106551;1277;74053;-83
2024/02/21 10:38:18;;;;;;;18.10;13.90;;;;;;;5.25;100.00;100057.73;106531;1270;60726;-82
2024/02/21 10:40:47;;;;;;;12.50;11.10;;;;;;;5.38;100.00;100057.06;106617;1269;62439;-82
2024/02/21 10:43:14;;;;;;;12.90;11.50;;;;;;;5.47;100.00;100055.61;106735;1270;72875;-82
2024/02/21 10:45:42;;;;;;;12.30;10.80;;;;;;;5.51;100.00;100056.34;105914;1275;71438;-83
2024/02/21 10:48:14;;;;;;;12.00;9.90;;;;;;;5.55;100.00;100051.07;106065;1270;73690;-84
2024/02/21 10:51:28;;;;;;;11.80;9.20;;;;;;;5.65;100.00;100049.30;107266;1270;60802;-84
2024/02/21 10:54:21;;;;;;;10.70;9.60;;;;;;;5.73;100.00;100047.30;107366;1268;60543;-81
2024/02/21 10:56:49;;;;;;;11.00;8.30;;;;;;;5.68;99.93;100043.77;107715;1271;74935;-82
2024/02/21 10:59:17;;;;;;;9.70;8.10;;;;;;;5.77;99.72;100046.58;107911;1268;69183;-82
2024/02/21 11:01:44;;;;;;;10.30;8.20;;;;;;;5.82;100.00;100042.80;108287;1267;71238;-81
2024/02/21 11:04:12;;;;;;;8.10;7.30;;;;;;;5.84;100.00;100041.92;107979;1267;58919;-81
2024/02/21 11:06:40;;;;;;;10.30;8.10;;;;;;;5.87;100.00;100040.95;105972;1267;60481;-82
2024/02/21 11:09:09;;;;;;;10.30;7.70;;;;;;;5.96;100.00;100039.89;105191;1267;74992;-81
2024/02/21 11:11:38;;;;;;;9.20;8.30;;;;;;;6.03;100.00;100038.04;105335;1267;72017;-81
2024/02/21 11:14:20;;;;;;;10.90;8.50;;;;;;;6.05;98.81;100040.20;107517;1267;73723;-82